sensor_id;sensor_type;location;lat;lon;timestamp;P1;durP1;ratioP1;P2;durP2;ratioP2
48578;SDS011;34357;51.948;6.132;2023-05-29T00:00:50;19.50;;;3.78;;
48578;SDS011;34357;51.948;6.132;2023-05-29T00:03:31;16.58;;;3.78;;
48578;SDS011;34357;51.948;6.132;2023-05-29T00:05:58;21.58;;;4.32;;
48578;SDS011;34357;51.948;6.132;2023-05-29T00:08:23;23.70;;;4.82;;
48578;SDS011;34357;51.948;6.132;2023-05-29T00:10:49;25.70;;;4.97;;
48578;SDS011;34357;51.948;6.132;2023-05-29T00:13:15;23.67;;;4.68;;
48578;SDS011;34357;51.948;6.132;2023-05-29T00:15:40;22.80;;;4.35;;
48578;SDS011;34357;51.948;6.132;2023-05-29T00:18:06;23.75;;;4.28;;
48578;SDS011;34357;51.948;6.132;2023-05-29T00:20:32;21.40;;;4.40;;
48578;SDS011;34357;51.948;6.132;2023-05-29T00:22:59;21.17;;;3.72;;
48578;SDS011;34357;51.948;6.132;2023-05-29T00:25:26;25.67;;;3.85;;
48578;SDS011;34357;51.948;6.132;2023-05-29T00:27:52;20.90;;;4.25;;
48578;SDS011;34357;51.948;6.132;2023-05-29T00:30:18;24.40;;;3.63;;
48578;SDS011;34357;51.948;6.132;2023-05-29T00:32:43;22.92;;;3.70;;
48578;SDS011;34357;51.948;6.132;2023-05-29T00:35:10;17.02;;;4.25;;
48578;SDS011;34357;51.948;6.132;2023-05-29T00:37:36;21.90;;;5.00;;
48578;SDS011;34357;51.948;6.132;2023-05-29T00:40:02;29.85;;;4.53;;
48578;SDS011;34357;51.948;6.132;2023-05-29T00:42:29;22.48;;;4.28;;
48578;SDS011;34357;51.948;6.132;2023-05-29T00:44:54;27.60;;;4.97;;
48578;SDS011;34357;51.948;6.132;2023-05-29T00:47:20;26.85;;;4.55;;
48578;SDS011;34357;51.948;6.132;2023-05-29T00:49:46;24.83;;;4.30;;
48578;SDS011;34357;51.948;6.132;2023-05-29T00:52:13;21.95;;;4.15;;
48578;SDS011;34357;51.948;6.132;2023-05-29T00:54:42;24.33;;;4.75;;
48578;SDS011;34357;51.948;6.132;2023-05-29T00:57:09;27.00;;;4.25;;
48578;SDS011;34357;51.948;6.132;2023-05-29T00:59:37;30.70;;;4.70;;
48578;SDS011;34357;51.948;6.132;2023-05-29T01:02:03;24.15;;;4.15;;
48578;SDS011;34357;51.948;6.132;2023-05-29T01:04:29;17.83;;;3.72;;
48578;SDS011;34357;51.948;6.132;2023-05-29T01:06:58;22.00;;;4.65;;
48578;SDS011;34357;51.948;6.132;2023-05-29T01:09:25;26.80;;;4.45;;
48578;SDS011;34357;51.948;6.132;2023-05-29T01:12:36;20.83;;;4.93;;
48578;SDS011;34357;51.948;6.132;2023-05-29T01:18:14;27.90;;;5.28;;
48578;SDS011;34357;51.948;6.132;2023-05-29T01:20:48;24.98;;;4.30;;
48578;SDS011;34357;51.948;6.132;2023-05-29T01:28:42;24.42;;;4.07;;
48578;SDS011;34357;51.948;6.132;2023-05-29T01:31:12;20.40;;;4.07;;
48578;SDS011;34357;51.948;6.132;2023-05-29T01:33:39;20.42;;;3.72;;
48578;SDS011;34357;51.948;6.132;2023-05-29T01:36:08;26.15;;;5.43;;
48578;SDS011;34357;51.948;6.132;2023-05-29T01:38:36;27.52;;;4.40;;
48578;SDS011;34357;51.948;6.132;2023-05-29T01:41:02;17.95;;;4.40;;
48578;SDS011;34357;51.948;6.132;2023-05-29T01:43:28;22.63;;;4.10;;
48578;SDS011;34357;51.948;6.132;2023-05-29T01:45:55;25.60;;;4.82;;
48578;SDS011;34357;51.948;6.132;2023-05-29T01:48:21;24.42;;;4.35;;
48578;SDS011;34357;51.948;6.132;2023-05-29T01:50:48;24.83;;;4.30;;
48578;SDS011;34357;51.948;6.132;2023-05-29T01:53:15;20.42;;;3.83;;
48578;SDS011;34357;51.948;6.132;2023-05-29T01:55:41;21.48;;;4.22;;
48578;SDS011;34357;51.948;6.132;2023-05-29T01:58:07;33.25;;;5.28;;
48578;SDS011;34357;51.948;6.132;2023-05-29T02:00:33;27.13;;;3.83;;
48578;SDS011;34357;51.948;6.132;2023-05-29T02:03:00;25.35;;;3.83;;
48578;SDS011;34357;51.948;6.132;2023-05-29T02:05:27;33.47;;;5.30;;
48578;SDS011;34357;51.948;6.132;2023-05-29T02:07:52;22.20;;;5.00;;
48578;SDS011;34357;51.948;6.132;2023-05-29T02:10:18;26.67;;;4.28;;
48578;SDS011;34357;51.948;6.132;2023-05-29T02:12:44;27.13;;;4.72;;
48578;SDS011;34357;51.948;6.132;2023-05-29T02:15:10;26.20;;;4.25;;
48578;SDS011;34357;51.948;6.132;2023-05-29T02:17:36;23.45;;;3.90;;
48578;SDS011;34357;51.948;6.132;2023-05-29T02:20:02;27.17;;;4.78;;
48578;SDS011;34357;51.948;6.132;2023-05-29T02:22:29;31.55;;;4.22;;
48578;SDS011;34357;51.948;6.132;2023-05-29T02:24:57;30.42;;;4.28;;
48578;SDS011;34357;51.948;6.132;2023-05-29T02:27:23;23.67;;;3.88;;
48578;SDS011;34357;51.948;6.132;2023-05-29T02:29:49;21.38;;;3.97;;
48578;SDS011;34357;51.948;6.132;2023-05-29T02:32:14;24.73;;;4.78;;
48578;SDS011;34357;51.948;6.132;2023-05-29T02:34:40;28.48;;;5.22;;
48578;SDS011;34357;51.948;6.132;2023-05-29T02:37:06;29.35;;;4.63;;
48578;SDS011;34357;51.948;6.132;2023-05-29T02:39:32;34.40;;;6.00;;
48578;SDS011;34357;51.948;6.132;2023-05-29T02:41:57;21.58;;;3.88;;
48578;SDS011;34357;51.948;6.132;2023-05-29T02:44:23;25.60;;;4.47;;
48578;SDS011;34357;51.948;6.132;2023-05-29T02:46:50;24.17;;;4.28;;
48578;SDS011;34357;51.948;6.132;2023-05-29T02:49:15;23.23;;;3.92;;
48578;SDS011;34357;51.948;6.132;2023-05-29T02:51:41;27.95;;;4.78;;
48578;SDS011;34357;51.948;6.132;2023-05-29T02:54:07;29.60;;;4.28;;
48578;SDS011;34357;51.948;6.132;2023-05-29T02:56:32;22.02;;;4.03;;
48578;SDS011;34357;51.948;6.132;2023-05-29T02:58:59;24.95;;;4.63;;
48578;SDS011;34357;51.948;6.132;2023-05-29T03:01:25;32.63;;;4.55;;
48578;SDS011;34357;51.948;6.132;2023-05-29T03:03:53;25.30;;;4.43;;
48578;SDS011;34357;51.948;6.132;2023-05-29T03:06:19;25.52;;;4.57;;
48578;SDS011;34357;51.948;6.132;2023-05-29T03:08:45;23.23;;;4.70;;
48578;SDS011;34357;51.948;6.132;2023-05-29T03:11:12;26.85;;;4.60;;
48578;SDS011;34357;51.948;6.132;2023-05-29T03:13:38;24.20;;;4.88;;
48578;SDS011;34357;51.948;6.132;2023-05-29T03:16:07;23.35;;;4.13;;
48578;SDS011;34357;51.948;6.132;2023-05-29T03:18:34;28.95;;;4.28;;
48578;SDS011;34357;51.948;6.132;2023-05-29T03:21:00;27.63;;;4.43;;
48578;SDS011;34357;51.948;6.132;2023-05-29T03:23:27;22.60;;;4.60;;
48578;SDS011;34357;51.948;6.132;2023-05-29T03:25:53;27.27;;;4.10;;
48578;SDS011;34357;51.948;6.132;2023-05-29T03:28:18;23.88;;;4.53;;
48578;SDS011;34357;51.948;6.132;2023-05-29T03:30:45;25.90;;;4.55;;
48578;SDS011;34357;51.948;6.132;2023-05-29T03:33:14;19.60;;;4.22;;
48578;SDS011;34357;51.948;6.132;2023-05-29T03:35:56;27.38;;;4.68;;
48578;SDS011;34357;51.948;6.132;2023-05-29T03:38:22;29.30;;;4.53;;
48578;SDS011;34357;51.948;6.132;2023-05-29T03:40:48;24.48;;;4.10;;
48578;SDS011;34357;51.948;6.132;2023-05-29T03:43:14;22.45;;;5.20;;
48578;SDS011;34357;51.948;6.132;2023-05-29T03:45:41;23.00;;;4.30;;
48578;SDS011;34357;51.948;6.132;2023-05-29T03:48:07;35.42;;;5.85;;
48578;SDS011;34357;51.948;6.132;2023-05-29T03:50:32;22.40;;;4.18;;
48578;SDS011;34357;51.948;6.132;2023-05-29T03:52:58;22.65;;;4.63;;
48578;SDS011;34357;51.948;6.132;2023-05-29T03:55:25;25.33;;;4.15;;
48578;SDS011;34357;51.948;6.132;2023-05-29T03:57:52;26.30;;;4.10;;
48578;SDS011;34357;51.948;6.132;2023-05-29T04:00:18;22.30;;;4.28;;
48578;SDS011;34357;51.948;6.132;2023-05-29T04:02:45;25.38;;;4.78;;
48578;SDS011;34357;51.948;6.132;2023-05-29T04:05:11;24.05;;;4.55;;
48578;SDS011;34357;51.948;6.132;2023-05-29T04:07:40;25.38;;;4.45;;
48578;SDS011;34357;51.948;6.132;2023-05-29T04:10:07;23.42;;;4.25;;
48578;SDS011;34357;51.948;6.132;2023-05-29T04:12:33;19.50;;;4.10;;
48578;SDS011;34357;51.948;6.132;2023-05-29T04:14:59;27.67;;;3.88;;
48578;SDS011;34357;51.948;6.132;2023-05-29T04:17:26;23.50;;;4.35;;
48578;SDS011;34357;51.948;6.132;2023-05-29T04:19:51;25.27;;;4.10;;
48578;SDS011;34357;51.948;6.132;2023-05-29T04:22:17;23.08;;;4.22;;
48578;SDS011;34357;51.948;6.132;2023-05-29T04:24:44;30.73;;;4.55;;
48578;SDS011;34357;51.948;6.132;2023-05-29T04:27:10;20.00;;;3.65;;
48578;SDS011;34357;51.948;6.132;2023-05-29T04:29:39;24.90;;;3.80;;
48578;SDS011;34357;51.948;6.132;2023-05-29T04:32:08;19.90;;;3.45;;
48578;SDS011;34357;51.948;6.132;2023-05-29T04:34:37;23.25;;;3.65;;
48578;SDS011;34357;51.948;6.132;2023-05-29T04:37:13;29.58;;;4.72;;
48578;SDS011;34357;51.948;6.132;2023-05-29T04:39:39;27.40;;;4.38;;
48578;SDS011;34357;51.948;6.132;2023-05-29T04:42:06;27.88;;;4.82;;
48578;SDS011;34357;51.948;6.132;2023-05-29T04:44:33;27.92;;;4.15;;
48578;SDS011;34357;51.948;6.132;2023-05-29T04:46:59;22.58;;;3.75;;
48578;SDS011;34357;51.948;6.132;2023-05-29T04:49:28;26.92;;;4.70;;
48578;SDS011;34357;51.948;6.132;2023-05-29T04:51:54;29.20;;;4.32;;
48578;SDS011;34357;51.948;6.132;2023-05-29T04:54:21;25.23;;;4.85;;
48578;SDS011;34357;51.948;6.132;2023-05-29T04:56:51;26.95;;;3.67;;
48578;SDS011;34357;51.948;6.132;2023-05-29T04:59:18;26.27;;;4.10;;
48578;SDS011;34357;51.948;6.132;2023-05-29T05:01:44;24.10;;;4.20;;
48578;SDS011;34357;51.948;6.132;2023-05-29T05:04:10;24.67;;;3.55;;
48578;SDS011;34357;51.948;6.132;2023-05-29T05:06:36;22.95;;;3.85;;
48578;SDS011;34357;51.948;6.132;2023-05-29T05:09:02;24.85;;;4.40;;
48578;SDS011;34357;51.948;6.132;2023-05-29T05:11:29;20.42;;;3.35;;
48578;SDS011;34357;51.948;6.132;2023-05-29T05:13:55;22.02;;;3.92;;
48578;SDS011;34357;51.948;6.132;2023-05-29T05:16:21;26.25;;;4.22;;
48578;SDS011;34357;51.948;6.132;2023-05-29T05:18:47;23.70;;;4.40;;
48578;SDS011;34357;51.948;6.132;2023-05-29T05:21:13;25.65;;;4.20;;
48578;SDS011;34357;51.948;6.132;2023-05-29T05:23:39;30.33;;;4.35;;
48578;SDS011;34357;51.948;6.132;2023-05-29T05:26:08;25.55;;;3.33;;
48578;SDS011;34357;51.948;6.132;2023-05-29T05:28:34;22.27;;;4.10;;
48578;SDS011;34357;51.948;6.132;2023-05-29T05:31:01;25.02;;;4.25;;
48578;SDS011;34357;51.948;6.132;2023-05-29T05:33:30;24.85;;;3.72;;
48578;SDS011;34357;51.948;6.132;2023-05-29T05:35:56;23.20;;;4.05;;
48578;SDS011;34357;51.948;6.132;2023-05-29T05:38:21;25.15;;;3.67;;
48578;SDS011;34357;51.948;6.132;2023-05-29T05:40:47;31.45;;;4.20;;
48578;SDS011;34357;51.948;6.132;2023-05-29T05:43:21;23.75;;;4.28;;
48578;SDS011;34357;51.948;6.132;2023-05-29T05:46:05;30.90;;;4.70;;
48578;SDS011;34357;51.948;6.132;2023-05-29T05:48:33;21.13;;;4.00;;
48578;SDS011;34357;51.948;6.132;2023-05-29T05:50:58;33.33;;;4.53;;
48578;SDS011;34357;51.948;6.132;2023-05-29T05:53:24;25.80;;;4.75;;
48578;SDS011;34357;51.948;6.132;2023-05-29T05:55:50;25.27;;;4.18;;
48578;SDS011;34357;51.948;6.132;2023-05-29T05:58:16;25.02;;;4.43;;
48578;SDS011;34357;51.948;6.132;2023-05-29T06:00:43;23.08;;;3.50;;
48578;SDS011;34357;51.948;6.132;2023-05-29T06:03:09;24.10;;;4.25;;
48578;SDS011;34357;51.948;6.132;2023-05-29T06:05:51;26.00;;;4.00;;
48578;SDS011;34357;51.948;6.132;2023-05-29T06:08:17;22.08;;;3.70;;
48578;SDS011;34357;51.948;6.132;2023-05-29T06:10:43;21.08;;;3.72;;
48578;SDS011;34357;51.948;6.132;2023-05-29T06:13:09;18.98;;;3.83;;
48578;SDS011;34357;51.948;6.132;2023-05-29T06:15:43;21.50;;;3.20;;
48578;SDS011;34357;51.948;6.132;2023-05-29T06:18:10;24.50;;;3.70;;
48578;SDS011;34357;51.948;6.132;2023-05-29T06:20:37;22.48;;;3.50;;
48578;SDS011;34357;51.948;6.132;2023-05-29T06:23:03;24.15;;;4.97;;
48578;SDS011;34357;51.948;6.132;2023-05-29T06:25:29;19.70;;;3.50;;
48578;SDS011;34357;51.948;6.132;2023-05-29T06:27:59;18.73;;;3.78;;
48578;SDS011;34357;51.948;6.132;2023-05-29T06:30:26;20.60;;;4.07;;
48578;SDS011;34357;51.948;6.132;2023-05-29T06:32:52;30.02;;;4.55;;
48578;SDS011;34357;51.948;6.132;2023-05-29T06:35:22;28.17;;;4.50;;
48578;SDS011;34357;51.948;6.132;2023-05-29T06:37:48;19.20;;;3.20;;
48578;SDS011;34357;51.948;6.132;2023-05-29T06:40:14;20.38;;;3.03;;
48578;SDS011;34357;51.948;6.132;2023-05-29T06:42:41;20.27;;;3.17;;
48578;SDS011;34357;51.948;6.132;2023-05-29T06:45:13;23.35;;;3.58;;
48578;SDS011;34357;51.948;6.132;2023-05-29T06:47:39;27.02;;;4.22;;
48578;SDS011;34357;51.948;6.132;2023-05-29T06:50:06;22.35;;;3.28;;
48578;SDS011;34357;51.948;6.132;2023-05-29T06:52:32;22.48;;;4.00;;
48578;SDS011;34357;51.948;6.132;2023-05-29T06:55:22;17.92;;;3.15;;
48578;SDS011;34357;51.948;6.132;2023-05-29T06:57:48;18.92;;;4.03;;
48578;SDS011;34357;51.948;6.132;2023-05-29T07:00:14;16.92;;;3.22;;
48578;SDS011;34357;51.948;6.132;2023-05-29T07:02:48;15.93;;;3.33;;
48578;SDS011;34357;51.948;6.132;2023-05-29T07:05:13;18.60;;;3.13;;
48578;SDS011;34357;51.948;6.132;2023-05-29T07:07:40;17.50;;;3.33;;
48578;SDS011;34357;51.948;6.132;2023-05-29T07:10:08;13.40;;;3.05;;
48578;SDS011;34357;51.948;6.132;2023-05-29T07:12:34;17.58;;;3.33;;
48578;SDS011;34357;51.948;6.132;2023-05-29T07:15:00;15.88;;;2.88;;
48578;SDS011;34357;51.948;6.132;2023-05-29T07:17:26;19.38;;;3.35;;
48578;SDS011;34357;51.948;6.132;2023-05-29T07:20:02;14.98;;;3.22;;
48578;SDS011;34357;51.948;6.132;2023-05-29T07:22:33;16.23;;;3.15;;
48578;SDS011;34357;51.948;6.132;2023-05-29T07:25:00;16.95;;;3.60;;
48578;SDS011;34357;51.948;6.132;2023-05-29T07:27:26;17.90;;;3.17;;
48578;SDS011;34357;51.948;6.132;2023-05-29T07:29:53;18.25;;;2.80;;
48578;SDS011;34357;51.948;6.132;2023-05-29T07:32:18;17.85;;;3.63;;
48578;SDS011;34357;51.948;6.132;2023-05-29T07:34:44;12.45;;;3.08;;
48578;SDS011;34357;51.948;6.132;2023-05-29T07:37:10;13.98;;;3.03;;
48578;SDS011;34357;51.948;6.132;2023-05-29T07:39:38;16.98;;;3.50;;
48578;SDS011;34357;51.948;6.132;2023-05-29T07:42:29;11.90;;;2.97;;
48578;SDS011;34357;51.948;6.132;2023-05-29T07:44:55;15.93;;;3.08;;
48578;SDS011;34357;51.948;6.132;2023-05-29T07:47:22;13.00;;;3.03;;
48578;SDS011;34357;51.948;6.132;2023-05-29T07:49:47;18.55;;;3.65;;
48578;SDS011;34357;51.948;6.132;2023-05-29T07:52:13;18.48;;;3.50;;
48578;SDS011;34357;51.948;6.132;2023-05-29T07:54:40;18.02;;;3.42;;
48578;SDS011;34357;51.948;6.132;2023-05-29T07:57:08;12.77;;;3.10;;
48578;SDS011;34357;51.948;6.132;2023-05-29T07:59:37;16.85;;;3.35;;
48578;SDS011;34357;51.948;6.132;2023-05-29T08:02:06;17.17;;;3.28;;
48578;SDS011;34357;51.948;6.132;2023-05-29T08:04:52;13.20;;;2.88;;
48578;SDS011;34357;51.948;6.132;2023-05-29T08:07:18;16.27;;;3.67;;
48578;SDS011;34357;51.948;6.132;2023-05-29T08:09:44;16.60;;;3.28;;
48578;SDS011;34357;51.948;6.132;2023-05-29T08:12:10;14.70;;;3.10;;
48578;SDS011;34357;51.948;6.132;2023-05-29T08:14:36;13.82;;;2.85;;
48578;SDS011;34357;51.948;6.132;2023-05-29T08:17:02;18.30;;;3.45;;
48578;SDS011;34357;51.948;6.132;2023-05-29T08:19:28;24.80;;;3.60;;
48578;SDS011;34357;51.948;6.132;2023-05-29T08:21:53;16.83;;;3.60;;
48578;SDS011;34357;51.948;6.132;2023-05-29T08:24:19;19.58;;;4.18;;
48578;SDS011;34357;51.948;6.132;2023-05-29T08:26:45;15.75;;;3.30;;
48578;SDS011;34357;51.948;6.132;2023-05-29T08:29:11;19.10;;;3.47;;
48578;SDS011;34357;51.948;6.132;2023-05-29T08:31:37;19.92;;;3.25;;
48578;SDS011;34357;51.948;6.132;2023-05-29T08:34:03;21.95;;;3.55;;
48578;SDS011;34357;51.948;6.132;2023-05-29T08:36:28;16.33;;;3.22;;
48578;SDS011;34357;51.948;6.132;2023-05-29T08:38:54;15.60;;;3.10;;
48578;SDS011;34357;51.948;6.132;2023-05-29T08:43:52;16.27;;;2.95;;
48578;SDS011;34357;51.948;6.132;2023-05-29T08:46:18;12.38;;;2.70;;
48578;SDS011;34357;51.948;6.132;2023-05-29T08:48:48;16.83;;;3.85;;
48578;SDS011;34357;51.948;6.132;2023-05-29T08:51:20;15.63;;;2.95;;
48578;SDS011;34357;51.948;6.132;2023-05-29T08:53:47;13.43;;;2.97;;
48578;SDS011;34357;51.948;6.132;2023-05-29T08:56:13;16.10;;;3.30;;
48578;SDS011;34357;51.948;6.132;2023-05-29T08:58:38;14.52;;;2.80;;
48578;SDS011;34357;51.948;6.132;2023-05-29T09:01:04;16.75;;;2.92;;
48578;SDS011;34357;51.948;6.132;2023-05-29T09:03:31;15.02;;;2.90;;
48578;SDS011;34357;51.948;6.132;2023-05-29T09:06:00;15.23;;;3.50;;
48578;SDS011;34357;51.948;6.132;2023-05-29T09:08:28;13.77;;;2.88;;
48578;SDS011;34357;51.948;6.132;2023-05-29T09:10:54;16.88;;;3.03;;
48578;SDS011;34357;51.948;6.132;2023-05-29T09:13:22;14.07;;;2.85;;
48578;SDS011;34357;51.948;6.132;2023-05-29T09:15:47;17.40;;;3.50;;
48578;SDS011;34357;51.948;6.132;2023-05-29T09:18:16;13.25;;;3.00;;
48578;SDS011;34357;51.948;6.132;2023-05-29T09:20:42;17.25;;;3.45;;
48578;SDS011;34357;51.948;6.132;2023-05-29T09:23:08;13.90;;;3.55;;
48578;SDS011;34357;51.948;6.132;2023-05-29T09:25:38;12.45;;;3.30;;
48578;SDS011;34357;51.948;6.132;2023-05-29T09:28:07;15.63;;;3.25;;
48578;SDS011;34357;51.948;6.132;2023-05-29T09:30:40;16.27;;;3.25;;
48578;SDS011;34357;51.948;6.132;2023-05-29T09:33:11;12.18;;;2.95;;
48578;SDS011;34357;51.948;6.132;2023-05-29T09:35:39;17.80;;;3.17;;
48578;SDS011;34357;51.948;6.132;2023-05-29T09:38:06;10.75;;;2.88;;
48578;SDS011;34357;51.948;6.132;2023-05-29T09:40:34;15.40;;;3.35;;
48578;SDS011;34357;51.948;6.132;2023-05-29T09:43:19;14.07;;;3.15;;
48578;SDS011;34357;51.948;6.132;2023-05-29T09:45:49;18.35;;;3.40;;
48578;SDS011;34357;51.948;6.132;2023-05-29T09:48:16;14.40;;;3.08;;
48578;SDS011;34357;51.948;6.132;2023-05-29T09:50:43;15.07;;;3.00;;
48578;SDS011;34357;51.948;6.132;2023-05-29T09:53:19;14.07;;;2.90;;
48578;SDS011;34357;51.948;6.132;2023-05-29T09:55:45;12.50;;;2.83;;
48578;SDS011;34357;51.948;6.132;2023-05-29T09:58:13;14.57;;;3.30;;
48578;SDS011;34357;51.948;6.132;2023-05-29T10:00:41;13.88;;;2.85;;
48578;SDS011;34357;51.948;6.132;2023-05-29T10:03:08;10.48;;;2.38;;
48578;SDS011;34357;51.948;6.132;2023-05-29T10:05:34;13.68;;;3.03;;
48578;SDS011;34357;51.948;6.132;2023-05-29T10:08:02;14.55;;;3.33;;
48578;SDS011;34357;51.948;6.132;2023-05-29T10:10:30;13.70;;;2.97;;
48578;SDS011;34357;51.948;6.132;2023-05-29T10:12:57;13.98;;;3.00;;
48578;SDS011;34357;51.948;6.132;2023-05-29T10:15:28;11.75;;;2.72;;
48578;SDS011;34357;51.948;6.132;2023-05-29T10:18:02;13.07;;;2.70;;
48578;SDS011;34357;51.948;6.132;2023-05-29T10:20:30;13.00;;;3.20;;
48578;SDS011;34357;51.948;6.132;2023-05-29T10:22:59;15.00;;;3.33;;
48578;SDS011;34357;51.948;6.132;2023-05-29T10:25:27;13.88;;;3.38;;
48578;SDS011;34357;51.948;6.132;2023-05-29T10:27:56;11.57;;;3.42;;
48578;SDS011;34357;51.948;6.132;2023-05-29T10:36:12;15.35;;;3.22;;
48578;SDS011;34357;51.948;6.132;2023-05-29T10:38:41;10.98;;;2.55;;
48578;SDS011;34357;51.948;6.132;2023-05-29T10:43:53;14.02;;;3.97;;
48578;SDS011;34357;51.948;6.132;2023-05-29T10:46:19;17.55;;;3.25;;
48578;SDS011;34357;51.948;6.132;2023-05-29T10:48:48;9.30;;;2.67;;
48578;SDS011;34357;51.948;6.132;2023-05-29T10:51:48;18.42;;;3.20;;
48578;SDS011;34357;51.948;6.132;2023-05-29T10:54:06;10.93;;;3.03;;
48578;SDS011;34357;51.948;6.132;2023-05-29T10:56:32;14.45;;;2.80;;
48578;SDS011;34357;51.948;6.132;2023-05-29T10:58:59;16.48;;;2.97;;
48578;SDS011;34357;51.948;6.132;2023-05-29T11:01:29;18.27;;;3.38;;
48578;SDS011;34357;51.948;6.132;2023-05-29T11:06:43;13.88;;;3.42;;
48578;SDS011;34357;51.948;6.132;2023-05-29T11:09:26;10.23;;;2.47;;
48578;SDS011;34357;51.948;6.132;2023-05-29T11:14:55;13.43;;;3.83;;
48578;SDS011;34357;51.948;6.132;2023-05-29T11:17:32;12.82;;;3.00;;
48578;SDS011;34357;51.948;6.132;2023-05-29T11:20:12;12.20;;;3.20;;
48578;SDS011;34357;51.948;6.132;2023-05-29T11:22:46;12.95;;;2.85;;
48578;SDS011;34357;51.948;6.132;2023-05-29T11:25:25;13.80;;;2.83;;
48578;SDS011;34357;51.948;6.132;2023-05-29T11:27:52;12.75;;;3.00;;
48578;SDS011;34357;51.948;6.132;2023-05-29T11:30:18;13.05;;;3.58;;
48578;SDS011;34357;51.948;6.132;2023-05-29T11:32:46;13.18;;;3.05;;
48578;SDS011;34357;51.948;6.132;2023-05-29T11:35:12;18.08;;;3.88;;
48578;SDS011;34357;51.948;6.132;2023-05-29T11:37:39;13.80;;;3.40;;
48578;SDS011;34357;51.948;6.132;2023-05-29T11:40:12;13.70;;;3.30;;
48578;SDS011;34357;51.948;6.132;2023-05-29T11:42:47;13.73;;;3.35;;
48578;SDS011;34357;51.948;6.132;2023-05-29T11:45:19;19.67;;;3.35;;
48578;SDS011;34357;51.948;6.132;2023-05-29T11:47:52;15.52;;;2.97;;
48578;SDS011;34357;51.948;6.132;2023-05-29T11:50:20;15.80;;;3.97;;
48578;SDS011;34357;51.948;6.132;2023-05-29T11:52:50;12.20;;;3.20;;
48578;SDS011;34357;51.948;6.132;2023-05-29T11:55:19;12.40;;;3.20;;
48578;SDS011;34357;51.948;6.132;2023-05-29T11:57:46;12.18;;;2.95;;
48578;SDS011;34357;51.948;6.132;2023-05-29T12:00:15;13.80;;;3.05;;
48578;SDS011;34357;51.948;6.132;2023-05-29T12:02:43;16.27;;;3.15;;
48578;SDS011;34357;51.948;6.132;2023-05-29T12:05:12;11.88;;;3.13;;
48578;SDS011;34357;51.948;6.132;2023-05-29T12:07:47;13.18;;;3.53;;
48578;SDS011;34357;51.948;6.132;2023-05-29T12:10:18;13.48;;;3.22;;
48578;SDS011;34357;51.948;6.132;2023-05-29T12:12:58;12.10;;;3.45;;
48578;SDS011;34357;51.948;6.132;2023-05-29T12:15:28;14.82;;;3.33;;
48578;SDS011;34357;51.948;6.132;2023-05-29T12:17:54;10.30;;;2.97;;
48578;SDS011;34357;51.948;6.132;2023-05-29T12:20:24;11.00;;;2.72;;
48578;SDS011;34357;51.948;6.132;2023-05-29T12:22:52;12.27;;;2.97;;
48578;SDS011;34357;51.948;6.132;2023-05-29T12:25:24;10.32;;;2.80;;
48578;SDS011;34357;51.948;6.132;2023-05-29T12:27:50;16.33;;;3.75;;
48578;SDS011;34357;51.948;6.132;2023-05-29T12:30:20;16.25;;;3.33;;
48578;SDS011;34357;51.948;6.132;2023-05-29T12:32:50;13.10;;;3.20;;
48578;SDS011;34357;51.948;6.132;2023-05-29T12:35:18;14.48;;;3.05;;
48578;SDS011;34357;51.948;6.132;2023-05-29T12:37:45;12.32;;;3.22;;
48578;SDS011;34357;51.948;6.132;2023-05-29T12:40:16;11.65;;;3.25;;
48578;SDS011;34357;51.948;6.132;2023-05-29T12:42:46;14.82;;;3.15;;
48578;SDS011;34357;51.948;6.132;2023-05-29T12:45:13;11.45;;;3.03;;
48578;SDS011;34357;51.948;6.132;2023-05-29T12:47:55;12.23;;;2.75;;
48578;SDS011;34357;51.948;6.132;2023-05-29T12:50:22;13.52;;;3.60;;
48578;SDS011;34357;51.948;6.132;2023-05-29T12:52:52;14.32;;;3.25;;
48578;SDS011;34357;51.948;6.132;2023-05-29T12:55:42;14.25;;;3.10;;
48578;SDS011;34357;51.948;6.132;2023-05-29T12:58:09;15.13;;;3.67;;
48578;SDS011;34357;51.948;6.132;2023-05-29T13:00:41;11.77;;;3.30;;
48578;SDS011;34357;51.948;6.132;2023-05-29T13:03:08;12.45;;;2.95;;
48578;SDS011;34357;51.948;6.132;2023-05-29T13:05:35;13.02;;;3.30;;
48578;SDS011;34357;51.948;6.132;2023-05-29T13:08:01;12.02;;;3.10;;
48578;SDS011;34357;51.948;6.132;2023-05-29T13:10:31;10.90;;;3.15;;
48578;SDS011;34357;51.948;6.132;2023-05-29T13:12:59;11.25;;;2.88;;
48578;SDS011;34357;51.948;6.132;2023-05-29T13:15:25;11.40;;;3.13;;
48578;SDS011;34357;51.948;6.132;2023-05-29T13:17:54;17.17;;;3.40;;
48578;SDS011;34357;51.948;6.132;2023-05-29T13:20:19;13.68;;;3.05;;
48578;SDS011;34357;51.948;6.132;2023-05-29T13:22:46;12.43;;;3.13;;
48578;SDS011;34357;51.948;6.132;2023-05-29T13:25:13;10.98;;;3.28;;
48578;SDS011;34357;51.948;6.132;2023-05-29T13:27:40;11.82;;;2.80;;
48578;SDS011;34357;51.948;6.132;2023-05-29T13:30:08;14.40;;;3.20;;
48578;SDS011;34357;51.948;6.132;2023-05-29T13:32:34;12.55;;;2.97;;
48578;SDS011;34357;51.948;6.132;2023-05-29T13:35:00;13.80;;;2.97;;
48578;SDS011;34357;51.948;6.132;2023-05-29T13:37:26;13.38;;;2.90;;
48578;SDS011;34357;51.948;6.132;2023-05-29T13:39:53;9.90;;;2.55;;
48578;SDS011;34357;51.948;6.132;2023-05-29T13:42:19;12.63;;;3.33;;
48578;SDS011;34357;51.948;6.132;2023-05-29T13:44:45;11.05;;;2.70;;
48578;SDS011;34357;51.948;6.132;2023-05-29T13:47:12;12.93;;;2.97;;
48578;SDS011;34357;51.948;6.132;2023-05-29T13:49:37;10.93;;;3.15;;
48578;SDS011;34357;51.948;6.132;2023-05-29T13:52:03;15.85;;;3.10;;
48578;SDS011;34357;51.948;6.132;2023-05-29T13:54:29;13.52;;;3.20;;
48578;SDS011;34357;51.948;6.132;2023-05-29T13:56:57;13.68;;;2.80;;
48578;SDS011;34357;51.948;6.132;2023-05-29T13:59:23;12.52;;;3.10;;
48578;SDS011;34357;51.948;6.132;2023-05-29T14:01:49;15.38;;;3.03;;
48578;SDS011;34357;51.948;6.132;2023-05-29T14:04:16;13.65;;;3.45;;
48578;SDS011;34357;51.948;6.132;2023-05-29T14:06:41;14.23;;;3.70;;
48578;SDS011;34357;51.948;6.132;2023-05-29T14:09:07;12.23;;;2.72;;
48578;SDS011;34357;51.948;6.132;2023-05-29T14:11:36;15.40;;;3.00;;
48578;SDS011;34357;51.948;6.132;2023-05-29T14:14:05;17.45;;;3.20;;
48578;SDS011;34357;51.948;6.132;2023-05-29T14:16:31;14.77;;;3.30;;
48578;SDS011;34357;51.948;6.132;2023-05-29T14:18:58;15.38;;;2.95;;
48578;SDS011;34357;51.948;6.132;2023-05-29T14:21:24;13.50;;;3.47;;
48578;SDS011;34357;51.948;6.132;2023-05-29T14:23:50;18.38;;;3.30;;
48578;SDS011;34357;51.948;6.132;2023-05-29T14:26:16;15.65;;;3.42;;
48578;SDS011;34357;51.948;6.132;2023-05-29T14:28:42;14.20;;;3.25;;
48578;SDS011;34357;51.948;6.132;2023-05-29T14:31:08;13.20;;;3.30;;
48578;SDS011;34357;51.948;6.132;2023-05-29T14:33:34;13.30;;;3.00;;
48578;SDS011;34357;51.948;6.132;2023-05-29T14:36:01;15.95;;;3.50;;
48578;SDS011;34357;51.948;6.132;2023-05-29T14:38:28;15.18;;;3.05;;
48578;SDS011;34357;51.948;6.132;2023-05-29T14:40:53;15.95;;;3.63;;
48578;SDS011;34357;51.948;6.132;2023-05-29T14:43:19;13.30;;;2.95;;
48578;SDS011;34357;51.948;6.132;2023-05-29T14:45:45;15.98;;;3.50;;
48578;SDS011;34357;51.948;6.132;2023-05-29T14:48:11;14.98;;;3.42;;
48578;SDS011;34357;51.948;6.132;2023-05-29T14:50:36;8.82;;;2.55;;
48578;SDS011;34357;51.948;6.132;2023-05-29T14:53:02;13.95;;;2.83;;
48578;SDS011;34357;51.948;6.132;2023-05-29T14:55:28;17.27;;;3.45;;
48578;SDS011;34357;51.948;6.132;2023-05-29T14:57:57;14.95;;;3.47;;
48578;SDS011;34357;51.948;6.132;2023-05-29T15:00:23;8.93;;;3.13;;
48578;SDS011;34357;51.948;6.132;2023-05-29T15:02:48;10.50;;;3.10;;
48578;SDS011;34357;51.948;6.132;2023-05-29T15:05:14;10.75;;;2.58;;